Aline, Pennsylvania
Current Conditions -  °F | °C
As of 7:53 PM on Friday 31 Oct 2014 (Local Time) from KSEG Reporting Station
Overcast Overcast  
Wind Chill: 48°   Ceiling: 5500
Heat Index: 48°   Visibility: 10mi
Dew Point: 38°   Wind: 0mph
Humidity: 68%   Direction: NA
Pressure: 29.9"   Gusts: NA
Location:  40.6989°N, 77.0073°W
Report Text: KSEG 312353Z AUTO 00000KT 10SM OVC055 09/03 A2990 RMK AO2 SLP127 T00890033 10117 20089 53005
Loading
Personal Weather Stations






























Interactive Weather Map
Tropical Storm Tracking
New forecast layout! Learn more

10-Day Weather Forecast

Advertisements
Track Severe Weather on mobile